Time;durP1;ratioP1;P1;durP2;ratioP2;P2;SDS_P1;SDS_P2;PMS_P1;PMS_P2;Temp;Humidity;BMP_temperature;BMP_pressure;BME280_temperature;BME280_humidity;BME280_pressure;Samples;Min_cycle;Max_cycle;Signal;HPM_P1;HPM_P2
2022/08/05 00:01:14;;;;;;;9.63;5.25;;;25.00;99.90;;;;;;5048988;28;20421;-54
2022/08/05 00:03:39;;;;;;;10.88;5.10;;;24.80;99.90;;;;;;5031321;28;20443;-61
2022/08/05 00:06:05;;;;;;;10.00;5.37;;;25.50;99.90;;;;;;5048938;28;20857;-53
2022/08/05 00:08:31;;;;;;;10.48;5.40;;;24.70;99.90;;;;;;5049737;28;20389;-52
2022/08/05 00:10:58;;;;;;;10.27;5.20;;;24.60;99.90;;;;;;5049138;28;20871;-53
2022/08/05 00:13:23;;;;;;;9.63;5.70;;;24.60;99.90;;;;;;5049894;28;20381;-53
2022/08/05 00:15:49;;;;;;;10.03;5.93;;;24.60;99.90;;;;;;5030939;28;20389;-53
2022/08/05 00:18:14;;;;;;;10.90;5.10;;;24.60;99.90;;;;;;5049777;28;20396;-53
2022/08/05 00:20:40;;;;;;;11.17;5.20;;;24.60;99.90;;;;;;5048489;28;20940;-63
2022/08/05 00:23:06;;;;;;;9.27;5.23;;;24.60;99.90;;;;;;5050060;28;20396;-53
2022/08/05 00:25:32;;;;;;;9.30;4.90;;;24.60;99.90;;;;;;5052038;28;20758;-53
2022/08/05 00:27:58;;;;;;;9.10;5.22;;;24.60;99.90;;;;;;5053498;28;20480;-53
2022/08/05 00:30:24;;;;;;;10.40;5.72;;;24.50;99.90;;;;;;5053217;28;20436;-53
2022/08/05 00:32:50;;;;;;;9.80;4.90;;;24.50;99.90;;;;;;5034946;28;20425;-55
2022/08/05 00:35:16;;;;;;;12.53;6.10;;;24.50;99.90;;;;;;5052544;28;20443;-54
2022/08/05 00:37:41;;;;;;;11.32;6.32;;;24.50;99.90;;;;;;5052488;28;21264;-54
2022/08/05 00:40:07;;;;;;;9.90;5.97;;;24.50;99.90;;;;;;5052922;28;20907;-55
2022/08/05 00:42:35;;;;;;;9.07;5.67;;;24.50;99.90;;;;;;5053624;28;20527;-54
2022/08/05 00:45:03;;;;;;;10.00;6.00;;;24.60;99.90;;;;;;5052059;28;20389;-53
2022/08/05 00:47:29;;;;;;;9.55;6.10;;;24.50;99.90;;;;;;5053192;28;20761;-53
2022/08/05 00:49:55;;;;;;;9.17;5.10;;;24.40;99.90;;;;;;5052464;28;20480;-53
2022/08/05 00:52:21;;;;;;;11.73;5.50;;;24.50;99.90;;;;;;5052988;28;20378;-53
2022/08/05 00:54:47;;;;;;;9.43;5.43;;;24.70;99.90;;;;;;5052004;28;20458;-54
2022/08/05 00:57:13;;;;;;;7.72;4.18;;;25.00;99.90;;;;;;5052757;28;20385;-54
2022/08/05 00:59:39;;;;;;;9.38;3.60;;;25.30;99.90;;;;;;5052376;28;20397;-53
2022/08/05 01:02:05;;;;;;;8.13;3.78;;;25.50;99.90;;;;;;5053074;28;20393;-58
2022/08/05 01:04:31;;;;;;;8.50;3.80;;;25.50;99.90;;;;;;5052845;28;20393;-53
2022/08/05 01:06:57;;;;;;;7.67;3.57;;;25.60;99.90;;;;;;5052312;28;20965;-53
2022/08/05 01:09:22;;;;;;;8.63;4.73;;;25.70;99.90;;;;;;5053184;28;20404;-56
2022/08/05 01:11:51;;;;;;;7.80;4.80;;;25.60;99.90;;;;;;5052067;28;20850;-53
2022/08/05 01:14:46;;;;;;;8.00;4.90;;;25.60;99.90;;;;;;5052214;28;20889;-52
2022/08/05 01:17:30;;;;;;;8.20;5.03;;;25.60;99.90;;;;;;5052711;28;20429;-53
2022/08/05 01:20:18;;;;;;;8.77;5.80;;;25.60;99.90;;;;;;5052444;28;20405;-53
2022/08/05 01:22:56;;;;;;;8.88;5.25;;;25.50;99.90;;;;;;5051441;28;20390;-53
2022/08/05 01:25:41;;;;;;;9.20;4.78;;;25.40;99.90;;;;;;5052366;28;20400;-53
2022/08/05 01:28:21;;;;;;;10.10;5.00;;;25.40;99.90;;;;;;5052080;28;20429;-53
2022/08/05 01:30:59;;;;;;;8.98;4.78;;;25.40;99.90;;;;;;5051686;28;20385;-54
2022/08/05 01:33:33;;;;;;;11.32;5.00;;;25.40;99.90;;;;;;5052056;28;20433;-53
2022/08/05 01:36:02;;;;;;;10.50;5.00;;;25.50;99.90;;;;;;5050469;28;20650;-53
2022/08/05 01:38:29;;;;;;;8.80;5.10;;;25.60;99.90;;;;;;5052091;28;20442;-53
2022/08/05 01:40:57;;;;;;;9.05;4.65;;;25.60;99.90;;;;;;5051763;28;20389;-53
2022/08/05 01:43:25;;;;;;;10.10;4.78;;;25.50;99.90;;;;;;5052060;28;20432;-53
2022/08/05 01:45:54;;;;;;;11.02;4.50;;;25.40;99.90;;;;;;5052239;28;20381;-53
2022/08/05 01:48:21;;;;;;;9.70;4.50;;;25.50;99.90;;;;;;5052264;28;20386;-53
2022/08/05 01:50:48;;;;;;;9.25;4.43;;;25.50;99.90;;;;;;5051672;28;20385;-53
2022/08/05 01:53:16;;;;;;;10.57;4.75;;;25.50;99.90;;;;;;5051366;28;20394;-53
2022/08/05 01:55:43;;;;;;;9.93;4.50;;;25.50;99.90;;;;;;5051216;28;20398;-53
2022/08/05 01:58:11;;;;;;;8.30;4.32;;;25.60;99.90;;;;;;5051614;28;20429;-53
2022/08/05 02:00:41;;;;;;;10.00;4.40;;;25.60;99.90;;;;;;5051622;28;20389;-58
2022/08/05 02:03:23;;;;;;;10.75;4.50;;;25.70;99.90;;;;;;5051462;28;20871;-53
2022/08/05 02:05:50;;;;;;;13.15;4.45;;;25.80;99.90;;;;;;5051212;28;20453;-53
2022/08/05 02:08:16;;;;;;;12.25;4.97;;;25.70;99.90;;;;;;5051808;28;20398;-53
2022/08/05 02:10:47;;;;;;;9.73;4.33;;;25.80;99.90;;;;;;5050836;28;20396;-62
2022/08/05 02:13:17;;;;;;;9.30;4.93;;;25.80;99.90;;;;;;5051558;28;20481;-58
2022/08/05 02:15:56;;;;;;;8.97;4.03;;;25.80;99.90;;;;;;5050974;28;20464;-54
2022/08/05 02:18:49;;;;;;;9.45;4.68;;;25.80;99.90;;;;;;5051258;28;20385;-53
2022/08/05 02:21:52;;;;;;;10.90;4.20;;;25.70;99.90;;;;;;5051258;28;20428;-53
2022/08/05 02:24:22;;;;;;;11.95;4.82;;;25.60;99.90;;;;;;4950894;29;20413;-54
2022/08/05 02:26:53;;;;;;;10.82;4.35;;;25.40;99.90;;;;;;5016965;28;20395;-54
2022/08/05 02:29:23;;;;;;;10.32;4.20;;;25.20;99.90;;;;;;5051259;28;20412;-53
2022/08/05 02:31:52;;;;;;;9.67;4.70;;;25.10;99.90;;;;;;5050492;28;20516;-53
2022/08/05 02:34:20;;;;;;;10.57;4.00;;;25.10;99.90;;;;;;5051289;28;20409;-53
2022/08/05 02:36:52;;;;;;;11.70;4.20;;;25.10;99.90;;;;;;5050153;28;20397;-53
2022/08/05 02:39:20;;;;;;;10.27;4.60;;;25.20;99.90;;;;;;5031133;28;20394;-53
2022/08/05 02:41:47;;;;;;;8.60;3.80;;;25.10;99.90;;;;;;5033617;28;20858;-56
2022/08/05 02:44:14;;;;;;;10.32;4.00;;;24.90;99.90;;;;;;5051051;28;20390;-54
2022/08/05 02:46:42;;;;;;;8.70;3.70;;;24.60;99.90;;;;;;5049990;28;20447;-62
2022/08/05 02:49:10;;;;;;;9.47;3.90;;;24.50;99.90;;;;;;5050867;28;20381;-54
2022/08/05 02:51:38;;;;;;;11.75;4.25;;;24.30;99.90;;;;;;5050847;28;20460;-53
2022/08/05 02:54:04;;;;;;;12.93;4.32;;;24.20;99.90;;;;;;5050416;28;20417;-53
2022/08/05 02:56:32;;;;;;;9.35;4.00;;;24.10;99.90;;;;;;5050470;28;20495;-53
2022/08/05 02:58:59;;;;;;;10.40;3.72;;;24.10;99.90;;;;;;5050199;28;20463;-53
2022/08/05 03:01:27;;;;;;;11.27;4.60;;;24.10;99.90;;;;;;5051046;28;20857;-53
2022/08/05 03:03:57;;;;;;;10.63;4.13;;;24.10;99.90;;;;;;5049552;28;20807;-54
2022/08/05 03:06:24;;;;;;;11.57;5.00;;;24.00;99.90;;;;;;5050290;28;20421;-55
2022/08/05 03:08:51;;;;;;;13.30;4.30;;;23.90;99.90;;;;;;5050529;28;20731;-56
2022/08/05 03:11:18;;;;;;;9.88;3.90;;;23.90;1.00;;;;;;5050178;28;20424;-57
2022/08/05 03:13:44;;;;;;;8.88;4.57;;;23.90;1.00;;;;;;5049788;28;20456;-59
2022/08/05 03:16:09;;;;;;;12.20;4.63;;;23.90;1.00;;;;;;5050139;28;20840;-57
2022/08/05 03:18:35;;;;;;;9.47;4.10;;;23.90;1.00;;;;;;5050026;28;20420;-56
2022/08/05 03:21:01;;;;;;;20.58;4.50;;;23.90;1.00;;;;;;5049794;28;20427;-57
2022/08/05 03:23:27;;;;;;;12.00;4.50;;;24.00;1.00;;;;;;5050175;28;20727;-56
2022/08/05 03:25:53;;;;;;;12.90;4.32;;;23.90;1.00;;;;;;5048790;28;20413;-56
2022/08/05 03:28:19;;;;;;;12.32;4.20;;;23.90;1.00;;;;;;5049844;28;20547;-54
2022/08/05 03:30:46;;;;;;;14.30;4.00;;;23.90;1.00;;;;;;5048833;28;20484;-55
2022/08/05 03:33:12;;;;;;;9.40;4.43;;;23.90;1.00;;;;;;5049817;28;20373;-56
2022/08/05 03:35:38;;;;;;;9.95;4.45;;;23.90;1.00;;;;;;5048402;28;20436;-53
2022/08/05 03:38:04;;;;;;;10.38;4.68;;;23.90;1.00;;;;;;5049206;28;20419;-53
2022/08/05 03:40:29;;;;;;;16.57;4.90;;;23.80;1.00;;;;;;5049193;28;20732;-53
2022/08/05 03:42:55;;;;;;;11.50;5.00;;;23.80;1.00;;;;;;5045047;28;20463;-53
2022/08/05 03:45:21;;;;;;;8.43;4.73;;;23.70;1.00;;;;;;5047951;28;20389;-53
2022/08/05 03:47:47;;;;;;;12.93;4.35;;;23.80;1.00;;;;;;5048376;28;20393;-53
2022/08/05 03:50:12;;;;;;;12.00;4.53;;;23.80;1.00;;;;;;5048740;28;20478;-53
2022/08/05 03:52:55;;;;;;;10.33;4.50;;;23.70;1.00;;;;;;5032208;28;20397;-53
2022/08/05 03:55:26;;;;;;;10.10;4.85;;;23.80;1.00;;;;;;5049092;28;20508;-53
2022/08/05 03:57:54;;;;;;;9.70;4.70;;;23.70;1.00;;;;;;5049055;28;20829;-53
2022/08/05 04:00:25;;;;;;;11.43;5.40;;;23.80;1.00;;;;;;5048007;28;20393;-53
2022/08/05 04:02:53;;;;;;;11.32;4.50;;;23.70;1.00;;;;;;5048866;28;20406;-53
2022/08/05 04:05:19;;;;;;;9.57;4.28;;;23.60;1.00;;;;;;5049047;28;20451;-53
2022/08/05 04:07:46;;;;;;;9.82;4.63;;;23.60;1.00;;;;;;5047128;28;20460;-61
2022/08/05 04:10:11;;;;;;;10.98;5.68;;;23.60;1.00;;;;;;5049068;28;20893;-53
2022/08/05 04:12:37;;;;;;;11.45;5.30;;;23.60;1.00;;;;;;5049593;28;20403;-52
2022/08/05 04:15:05;;;;;;;10.70;5.10;;;23.50;1.00;;;;;;5048000;28;20484;-53
2022/08/05 04:17:33;;;;;;;12.70;5.18;;;23.30;1.00;;;;;;5049640;28;20403;-53
2022/08/05 04:19:58;;;;;;;13.30;4.80;;;23.30;12.10;;;;;;5048733;28;20818;-53
2022/08/05 04:22:24;;;;;;;10.40;4.60;;;23.30;80.70;;;;;;5048506;28;20535;-54
2022/08/05 04:24:49;;;;;;;11.10;4.97;;;23.40;41.90;;;;;;5048112;28;20566;-53
2022/08/05 04:27:15;;;;;;;12.83;5.20;;;23.30;83.20;;;;;;5048991;28;20500;-53
2022/08/05 04:29:41;;;;;;;11.00;4.83;;;23.20;99.90;;;;;;5049238;28;20413;-57
2022/08/05 04:32:07;;;;;;;10.20;4.70;;;23.30;99.90;;;;;;5049189;28;20392;-53
2022/08/05 04:34:33;;;;;;;17.90;4.75;;;23.30;99.90;;;;;;5049347;28;20514;-54
2022/08/05 04:36:59;;;;;;;12.43;4.85;;;23.30;99.90;;;;;;5048466;28;20389;-54
2022/08/05 04:39:25;;;;;;;11.10;5.60;;;23.40;99.50;;;;;;5049510;28;20389;-55
2022/08/05 04:41:51;;;;;;;11.07;5.13;;;23.40;67.10;;;;;;5048887;28;20443;-53
2022/08/05 04:44:16;;;;;;;16.00;5.67;;;23.50;49.70;;;;;;5049226;28;20761;-53
2022/08/05 04:46:42;;;;;;;12.85;5.03;;;23.60;91.80;;;;;;5049023;28;20890;-60
2022/08/05 04:49:08;;;;;;;11.10;4.70;;;23.60;31.30;;;;;;5049201;28;20853;-53
2022/08/05 04:51:33;;;;;;;10.80;4.67;;;23.60;93.00;;;;;;5049191;28;20392;-54
2022/08/05 04:53:59;;;;;;;14.90;6.10;;;23.60;75.50;;;;;;5048501;28;20750;-53
2022/08/05 04:56:25;;;;;;;13.27;5.78;;;23.60;25.00;;;;;;5048862;28;20408;-54
2022/08/05 04:58:51;;;;;;;10.68;5.20;;;23.60;29.70;;;;;;5048925;28;20385;-53
2022/08/05 05:01:17;;;;;;;10.75;5.78;;;23.70;28.60;;;;;;5049410;28;20476;-55
2022/08/05 05:03:42;;;;;;;12.20;6.40;;;23.90;1.00;;;;;;5048881;28;20743;-59
2022/08/05 05:06:12;;;;;;;13.38;5.90;;;23.90;1.00;;;;;;5048862;28;20373;-53
2022/08/05 05:08:38;;;;;;;13.95;6.15;;;24.20;1.00;;;;;;5049134;28;20397;-54
2022/08/05 05:11:05;;;;;;;9.65;5.25;;;24.80;1.00;;;;;;5050339;28;20370;-53
2022/08/05 05:13:31;;;;;;;11.90;5.50;;;25.40;1.00;;;;;;5052960;28;20491;-53
2022/08/05 05:15:57;;;;;;;14.57;6.10;;;25.80;1.00;;;;;;5051737;28;20385;-53
2022/08/05 05:18:23;;;;;;;17.33;5.70;;;26.10;99.90;;;;;;5052752;28;20673;-53
2022/08/05 05:20:49;;;;;;;17.35;6.57;;;26.80;99.90;;;;;;5051841;28;20401;-54
2022/08/05 05:23:15;;;;;;;9.70;5.60;;;27.30;99.90;;;;;;5052362;28;20414;-54
2022/08/05 05:25:42;;;;;;;14.10;5.93;;;27.80;99.90;;;;;;5034445;28;20397;-54
2022/08/05 05:28:09;;;;;;;11.85;5.75;;;28.30;99.90;;;;;;5052570;28;20738;-53
2022/08/05 05:30:35;;;;;;;11.80;5.63;;;28.70;99.90;;;;;;5052148;28;20412;-53
2022/08/05 05:33:03;;;;;;;12.15;6.30;;;28.70;99.90;;;;;;5051632;28;20447;-53
2022/08/05 05:35:30;;;;;;;13.98;5.47;;;28.60;99.90;;;;;;5052278;28;20441;-54
2022/08/05 05:37:59;;;;;;;11.65;6.95;;;28.90;99.90;;;;;;5051582;28;20386;-53
2022/08/05 05:40:26;;;;;;;16.50;6.30;;;28.80;99.90;;;;;;5052112;28;20520;-53
2022/08/05 05:42:52;;;;;;;13.23;6.43;;;29.00;99.90;;;;;;5051565;28;20420;-54
2022/08/05 05:45:19;;;;;;;14.50;6.80;;;29.20;99.90;;;;;;5051891;28;20853;-54
2022/08/05 05:47:44;;;;;;;11.00;6.00;;;29.60;99.90;;;;;;5051181;28;20873;-61
2022/08/05 05:50:13;;;;;;;11.30;6.00;;;29.70;99.90;;;;;;5051857;28;20385;-54
2022/08/05 05:52:39;;;;;;;17.08;5.90;;;30.20;99.90;;;;;;5051939;28;20416;-54
2022/08/05 05:55:08;;;;;;;10.38;6.63;;;31.40;99.90;;;;;;5051055;28;20500;-54
2022/08/05 05:57:34;;;;;;;10.35;6.50;;;32.00;99.90;;;;;;5052289;28;20385;-54
2022/08/05 06:00:00;;;;;;;11.25;6.00;;;31.90;99.90;;;;;;5050934;28;20903;-54
2022/08/05 06:02:26;;;;;;;13.25;6.25;;;31.70;99.90;;;;;;5051767;28;20388;-54
2022/08/05 06:04:51;;;;;;;12.93;6.78;;;31.60;99.90;;;;;;5043954;28;20409;-56
2022/08/05 06:07:17;;;;;;;9.98;5.40;;;31.90;99.90;;;;;;5051854;28;20373;-53
2022/08/05 06:09:43;;;;;;;10.23;6.20;;;31.90;99.90;;;;;;5050853;28;21156;-56
2022/08/05 06:12:09;;;;;;;11.30;6.10;;;31.60;99.90;;;;;;5051467;28;20373;-54
2022/08/05 06:14:34;;;;;;;9.50;6.23;;;32.10;99.90;;;;;;5051431;28;20425;-53
2022/08/05 06:17:01;;;;;;;13.47;6.90;;;32.30;99.90;;;;;;5050767;28;20389;-54
2022/08/05 06:19:26;;;;;;;11.60;6.93;;;33.20;99.90;;;;;;5051637;28;20392;-54
2022/08/05 06:21:52;;;;;;;11.75;7.00;;;34.30;99.90;;;;;;5049335;28;20736;-56
2022/08/05 06:24:18;;;;;;;9.50;6.63;;;35.50;99.90;;;;;;5033394;28;20420;-56
2022/08/05 06:26:45;;;;;;;10.10;6.18;;;35.40;99.90;;;;;;5050846;28;20386;-54
2022/08/05 06:29:10;;;;;;;11.48;6.55;;;35.10;99.90;;;;;;5052033;28;20901;-54
2022/08/05 06:31:37;;;;;;;12.40;7.38;;;35.30;99.90;;;;;;5051201;28;20388;-54
2022/08/05 06:34:04;;;;;;;9.85;6.10;;;35.20;99.90;;;;;;5050255;28;20410;-54
2022/08/05 06:36:30;;;;;;;9.93;6.95;;;36.10;99.90;;;;;;5051356;28;20439;-54
2022/08/05 06:38:57;;;;;;;9.40;7.43;;;36.10;99.90;;;;;;5049726;28;20470;-54
2022/08/05 06:41:23;;;;;;;12.47;7.20;;;35.60;99.90;;;;;;5051166;28;20738;-54
2022/08/05 06:43:49;;;;;;;8.53;6.37;;;34.90;99.90;;;;;;5050496;28;20476;-56
2022/08/05 06:46:15;;;;;;;10.50;6.97;;;34.80;99.90;;;;;;5050986;28;20386;-54
2022/08/05 06:48:40;;;;;;;9.73;6.60;;;36.20;99.90;;;;;;5051340;28;20873;-54
2022/08/05 06:51:06;;;;;;;11.85;7.30;;;37.80;1.00;;;;;;5050091;28;20405;-54
2022/08/05 06:53:32;;;;;;;10.23;6.30;;;37.90;99.90;;;;;;5051293;28;20390;-54
2022/08/05 06:55:59;;;;;;;9.57;6.35;;;38.30;99.90;;;;;;5050453;28;20399;-57
2022/08/05 06:58:26;;;;;;;11.77;7.10;;;37.70;99.90;;;;;;5050755;28;20385;-54
2022/08/05 07:00:52;;;;;;;7.97;6.15;;;35.90;99.90;;;;;;5049831;28;20755;-54
2022/08/05 07:03:17;;;;;;;10.85;5.97;;;35.80;99.90;;;;;;5050339;28;20897;-54
2022/08/05 07:05:43;;;;;;;9.23;5.32;;;36.80;99.90;;;;;;5049540;28;20389;-60
2022/08/05 07:08:09;;;;;;;9.90;5.60;;;36.30;99.90;;;;;;5050375;28;20389;-54
2022/08/05 07:10:34;;;;;;;10.23;6.05;;;37.30;99.90;;;;;;5050186;28;20481;-55
2022/08/05 07:18:28;;;;;;;8.80;7.43;;;38.30;99.90;;;;;;5049953;28;20399;-55
2022/08/05 07:20:54;;;;;;;8.80;6.07;;;38.90;99.90;;;;;;5049276;28;20385;-55
2022/08/05 07:23:19;;;;;;;8.85;6.63;;;38.90;99.90;;;;;;5050436;28;20381;-55
2022/08/05 07:25:45;;;;;;;8.60;6.13;;;38.20;99.90;;;;;;5049766;28;20415;-61
2022/08/05 07:28:10;;;;;;;11.40;5.80;;;37.50;99.90;;;;;;5050040;28;20825;-55
2022/08/05 07:30:37;;;;;;;9.20;5.90;;;;;;;;;;5050345;28;20386;-55
2022/08/05 07:33:04;;;;;;;7.50;3.40;;;38.70;99.90;;;;;;5048683;28;20379;-55
2022/08/05 07:35:31;;;;;;;9.60;6.20;;;38.40;99.90;;;;;;5049242;28;20441;-54
2022/08/05 07:37:56;;;;;;;7.70;5.90;;;37.90;99.90;;;;;;5048974;28;20886;-54
2022/08/05 07:40:22;;;;;;;9.60;6.00;;;37.60;99.90;;;;;;5050030;28;20461;-54
2022/08/05 07:42:48;;;;;;;8.20;5.07;;;36.30;99.90;;;;;;5048828;28;20480;-56
2022/08/05 07:45:14;;;;;;;9.15;5.07;;;35.60;99.90;;;;;;5050316;28;20378;-54
2022/08/05 07:47:40;;;;;;;7.30;5.50;;;35.10;99.90;;;;;;5049787;28;21000;-55
2022/08/05 07:50:07;;;;;;;8.30;4.80;;;35.70;99.90;;;;;;5049245;28;20843;-54
2022/08/05 07:52:41;;;;;;;7.95;4.68;;;37.00;99.90;;;;;;5050017;28;20397;-54
2022/08/05 07:55:08;;;;;;;7.47;4.43;;;37.40;99.90;;;;;;5049185;28;20431;-58
2022/08/05 07:57:33;;;;;;;11.00;5.38;;;38.00;99.90;;;;;;5049427;28;20393;-55
2022/08/05 07:59:59;;;;;;;7.10;4.90;;;37.80;99.90;;;;;;5049378;28;20377;-55
2022/08/05 08:02:26;;;;;;;7.63;5.20;;;37.90;99.90;;;;;;5049591;28;20389;-54
2022/08/05 08:04:53;;;;;;;9.23;5.60;;;37.80;99.90;;;;;;5048998;28;20422;-55
2022/08/05 08:07:19;;;;;;;7.60;6.00;;;36.60;99.90;;;;;;5049993;28;20377;-54
2022/08/05 08:09:46;;;;;;;8.70;5.80;;;36.00;99.90;;;;;;5049274;28;20427;-61
2022/08/05 08:12:14;;;;;;;10.18;4.82;;;35.60;99.90;;;;;;5049556;28;20378;-54
2022/08/05 08:14:41;;;;;;;9.52;5.30;;;35.50;99.90;;;;;;5049513;28;20405;-54
2022/08/05 08:17:09;;;;;;;7.00;4.65;;;37.00;99.90;;;;;;5048907;28;20498;-54
2022/08/05 08:19:36;;;;;;;6.80;3.95;;;38.00;99.90;;;;;;5049388;28;20381;-54
2022/08/05 08:22:02;;;;;;;7.68;4.95;;;38.70;99.90;;;;;;5049034;28;20374;-57
2022/08/05 08:24:28;;;;;;;8.05;4.97;;;38.50;99.90;;;;;;5049345;28;20389;-54
2022/08/05 08:26:54;;;;;;;7.03;4.60;;;38.80;99.90;;;;;;5047998;28;20390;-54
2022/08/05 08:29:19;;;;;;;7.97;5.37;;;37.90;99.90;;;;;;5049477;28;20746;-54
2022/08/05 08:31:46;;;;;;;7.70;4.40;;;37.80;99.90;;;;;;5049115;28;20396;-61
2022/08/05 08:34:12;;;;;;;9.60;4.40;;;38.20;99.90;;;;;;5049192;28;20471;-54
2022/08/05 08:36:38;;;;;;;7.78;4.40;;;39.10;99.90;;;;;;5048650;28;20828;-55
2022/08/05 08:39:03;;;;;;;6.85;4.90;;;39.50;99.90;;;;;;5048361;28;20398;-55
2022/08/05 08:41:32;;;;;;;9.40;5.27;;;39.50;99.90;;;;;;5049251;28;20381;-55
2022/08/05 08:44:00;;;;;;;7.75;4.00;;;38.80;99.90;;;;;;5048531;28;20389;-55
2022/08/05 08:46:29;;;;;;;6.88;4.35;;;39.50;99.90;;;;;;5052621;28;20487;-55
2022/08/05 08:48:56;;;;;;;7.17;4.83;;;39.50;99.90;;;;;;5052434;28;20382;-54
2022/08/05 08:51:23;;;;;;;8.10;4.60;;;38.30;99.90;;;;;;5052861;28;20381;-55
2022/08/05 08:53:49;;;;;;;7.80;5.60;;;37.90;99.90;;;;;;5052246;28;20378;-55
2022/08/05 08:56:16;;;;;;;8.23;4.90;;;37.90;99.90;;;;;;5052685;28;20377;-54
2022/08/05 08:58:41;;;;;;;8.45;5.72;;;37.90;99.90;;;;;;5052639;28;20798;-54
2022/08/05 09:01:08;;;;;;;8.70;5.50;;;38.10;99.90;;;;;;5052748;28;20406;-54
2022/08/05 09:03:35;;;;;;;7.60;5.20;;;38.10;99.90;;;;;;5052983;28;20384;-57
2022/08/05 09:06:01;;;;;;;8.00;5.10;;;37.60;99.90;;;;;;5052291;28;20958;-54
2022/08/05 09:08:26;;;;;;;7.10;4.28;;;37.40;99.90;;;;;;5052827;28;20472;-55
2022/08/05 09:10:52;;;;;;;7.80;5.30;;;37.20;99.90;;;;;;5051949;28;20396;-54
2022/08/05 09:13:18;;;;;;;8.03;4.80;;;37.60;99.90;;;;;;5052920;28;20413;-54
2022/08/05 09:15:45;;;;;;;6.90;4.40;;;37.80;99.90;;;;;;5052752;28;20440;-54
2022/08/05 09:18:11;;;;;;;7.80;4.13;;;37.70;99.90;;;;;;5052356;28;20446;-54
2022/08/05 09:20:37;;;;;;;6.83;4.00;;;37.70;99.90;;;;;;5053148;28;20381;-54
2022/08/05 09:23:13;;;;;;;7.43;4.70;;;38.10;99.90;;;;;;5052288;28;20420;-54
2022/08/05 09:25:41;;;;;;;7.90;4.68;;;38.30;99.90;;;;;;5052368;28;20389;-54
2022/08/05 09:28:13;;;;;;;7.20;4.13;;;38.00;99.90;;;;;;5051038;28;20401;-55
2022/08/05 09:30:43;;;;;;;7.20;4.60;;;38.70;99.90;;;;;;5052224;28;20472;-54
2022/08/05 09:33:09;;;;;;;7.90;4.00;;;38.70;99.90;;;;;;5051990;28;20424;-55
2022/08/05 09:35:34;;;;;;;9.25;4.30;;;38.70;99.90;;;;;;5051581;28;20821;-54
2022/08/05 09:38:00;;;;;;;7.30;4.40;;;39.00;99.90;;;;;;5033483;28;20392;-55
2022/08/05 09:40:33;;;;;;;7.40;4.40;;;39.50;99.90;;;;;;5052138;28;20377;-55
2022/08/05 09:43:00;;;;;;;7.45;4.55;;;40.70;99.90;;;;;;5051229;28;20444;-56
2022/08/05 09:45:55;;;;;;;6.57;4.30;;;41.80;99.90;;;;;;5051956;28;20438;-55
2022/08/05 09:48:26;;;;;;;6.93;2.85;;;41.60;99.90;;;;;;5038635;28;20581;-54
2022/08/05 09:50:54;;;;;;;6.50;3.60;;;41.60;99.90;;;;;;5050901;28;20552;-55
2022/08/05 09:53:20;;;;;;;6.35;3.08;;;41.40;99.90;;;;;;5051908;28;20381;-58
2022/08/05 09:55:49;;;;;;;7.80;4.85;;;42.20;99.90;;;;;;5051506;28;20425;-55
2022/08/05 09:58:15;;;;;;;6.57;4.55;;;41.70;99.90;;;;;;5050484;28;20382;-55
2022/08/05 10:01:01;;;;;;;6.72;4.72;;;42.00;99.90;;;;;;5051772;28;20389;-58
2022/08/05 10:03:27;;;;;;;7.63;4.60;;;41.50;99.90;;;;;;5051729;28;20439;-56
2022/08/05 10:06:09;;;;;;;8.00;5.20;;;40.70;99.90;;;;;;5050917;28;20413;-55
2022/08/05 10:08:36;;;;;;;7.97;4.85;;;40.40;99.90;;;;;;5051534;28;20382;-54
2022/08/05 10:11:13;;;;;;;8.07;5.50;;;40.70;99.90;;;;;;5050635;28;20377;-54
2022/08/05 10:13:40;;;;;;;11.35;4.95;;;39.60;99.90;;;;;;5051351;28;20378;-55
2022/08/05 10:16:25;;;;;;;7.80;4.35;;;39.40;99.90;;;;;;5050788;28;20756;-55
2022/08/05 10:18:52;;;;;;;9.10;5.30;;;40.20;99.90;;;;;;5050698;28;20871;-57
2022/08/05 10:21:18;;;;;;;7.70;4.50;;;40.40;99.90;;;;;;5051619;28;21134;-54
2022/08/05 10:23:44;;;;;;;9.50;5.18;;;39.30;99.90;;;;;;5050926;28;20372;-54
2022/08/05 10:26:13;;;;;;;7.32;4.30;;;39.40;99.90;;;;;;5050878;28;20454;-55
2022/08/05 10:28:40;;;;;;;7.35;4.55;;;40.60;99.90;;;;;;5051281;28;20401;-55
2022/08/05 10:31:06;;;;;;;7.20;5.50;;;41.40;99.90;;;;;;5050411;28;20401;-55
2022/08/05 10:33:33;;;;;;;7.50;4.60;;;40.20;99.90;;;;;;5051318;28;20382;-55
2022/08/05 10:36:04;;;;;;;8.40;5.10;;;40.20;99.90;;;;;;5050356;28;20409;-55
2022/08/05 10:38:31;;;;;;;8.13;4.90;;;38.70;99.90;;;;;;5051267;28;20834;-54
2022/08/05 10:41:14;;;;;;;7.00;5.00;;;38.10;99.90;;;;;;5050207;28;20378;-54
2022/08/05 10:43:43;;;;;;;8.57;4.93;;;38.10;99.90;;;;;;5050824;28;20421;-54
2022/08/05 10:46:12;;;;;;;7.85;5.13;;;38.10;99.90;;;;;;5049909;28;21037;-54
2022/08/05 10:48:45;;;;;;;9.00;4.90;;;37.40;99.90;;;;;;5050210;28;20960;-55
2022/08/05 10:51:18;;;;;;;6.80;4.50;;;37.00;99.90;;;;;;5050315;28;20408;-54
2022/08/05 10:53:50;;;;;;;8.07;5.80;;;36.60;99.90;;;;;;5050420;28;20385;-54
2022/08/05 10:56:27;;;;;;;6.93;5.05;;;36.20;99.90;;;;;;5050614;28;20480;-54
2022/08/05 10:58:53;;;;;;;6.95;4.70;;;36.20;99.90;;;;;;5049995;28;20508;-54
2022/08/05 11:01:31;;;;;;;7.38;4.70;;;36.40;99.90;;;;;;5050641;28;20468;-55
2022/08/05 11:04:26;;;;;;;6.97;5.40;;;36.30;99.90;;;;;;5049756;28;20393;-54
2022/08/05 11:06:59;;;;;;;8.70;5.20;;;36.00;99.90;;;;;;5049905;28;20415;-54
2022/08/05 11:09:35;;;;;;;7.60;5.65;;;35.60;99.90;;;;;;5050226;28;20410;-54
2022/08/05 11:12:02;;;;;;;7.80;5.20;;;35.80;99.90;;;;;;5050500;28;20831;-55
2022/08/05 11:14:35;;;;;;;8.20;6.30;;;35.80;99.90;;;;;;5050490;28;20412;-54
2022/08/05 11:17:26;;;;;;;6.80;5.20;;;35.50;99.90;;;;;;5049740;28;20519;-54
2022/08/05 11:19:56;;;;;;;7.32;5.00;;;35.60;99.90;;;;;;5049354;28;20389;-55
2022/08/05 11:22:43;;;;;;;8.00;4.90;;;35.60;99.90;;;;;;5049946;28;20373;-55
2022/08/05 11:25:34;;;;;;;8.00;5.78;;;35.80;99.90;;;;;;5049335;28;20389;-54
2022/08/05 11:28:12;;;;;;;7.40;4.88;;;36.40;99.90;;;;;;5049165;28;20506;-54
2022/08/05 11:30:56;;;;;;;7.60;5.65;;;36.60;99.90;;;;;;5049227;28;20512;-54
2022/08/05 11:33:29;;;;;;;8.10;5.05;;;36.30;99.90;;;;;;5053124;28;20393;-54
2022/08/05 11:36:00;;;;;;;8.00;5.18;;;36.00;99.90;;;;;;5048248;28;20418;-57
2022/08/05 11:38:38;;;;;;;8.13;5.35;;;36.00;99.90;;;;;;5051688;28;20726;-54
2022/08/05 11:41:14;;;;;;;7.28;5.32;;;36.20;99.90;;;;;;5046474;28;20427;-54
2022/08/05 11:44:28;;;;;;;7.10;4.97;;;36.50;99.90;;;;;;5066742;28;20423;-54
2022/08/05 11:46:52;;;;;;;7.75;5.30;;;36.70;99.90;;;;;;5048908;28;20424;-54
2022/08/05 11:49:21;;;;;;;7.50;5.30;;;37.20;99.90;;;;;;5047055;28;20397;-54
2022/08/05 11:51:52;;;;;;;8.77;5.20;;;37.20;99.90;;;;;;5049340;28;20436;-54
2022/08/05 11:54:26;;;;;;;7.18;5.25;;;36.90;99.90;;;;;;5048988;28;20466;-55
2022/08/05 11:56:53;;;;;;;8.55;5.30;;;36.90;99.90;;;;;;5047113;28;20770;-61
2022/08/05 11:59:25;;;;;;;8.63;5.30;;;36.70;99.90;;;;;;5049229;28;20400;-55
2022/08/05 12:01:59;;;;;;;8.63;4.90;;;36.80;99.90;;;;;;5046594;28;20405;-61
2022/08/05 12:04:27;;;;;;;7.93;5.00;;;36.90;99.90;;;;;;5046114;28;20795;-58
2022/08/05 12:06:54;;;;;;;8.60;4.80;;;36.80;99.90;;;;;;5043544;28;20780;-57
2022/08/05 12:09:24;;;;;;;8.25;4.80;;;36.50;99.90;;;;;;5049390;28;20420;-54
2022/08/05 12:11:50;;;;;;;7.22;4.85;;;36.20;99.90;;;;;;5045428;28;20461;-55
2022/08/05 12:14:16;;;;;;;8.10;5.00;;;35.60;99.90;;;;;;5045166;28;20417;-54
2022/08/05 12:16:44;;;;;;;8.10;6.37;;;35.40;99.90;;;;;;5048831;28;20394;-54
2022/08/05 12:19:10;;;;;;;10.95;6.13;;;35.60;99.90;;;;;;5048363;28;20385;-55
2022/08/05 12:21:48;;;;;;;7.25;5.10;;;35.60;99.90;;;;;;5052655;28;20400;-54
2022/08/05 12:24:19;;;;;;;7.63;5.60;;;35.50;99.90;;;;;;5052967;28;20385;-56
2022/08/05 12:26:52;;;;;;;7.10;5.60;;;35.00;99.90;;;;;;5053106;28;20393;-54
2022/08/05 12:29:23;;;;;;;10.30;5.60;;;34.30;99.90;;;;;;5052996;28;20858;-54
2022/08/05 12:31:55;;;;;;;8.68;5.93;;;33.60;99.90;;;;;;5052715;28;20451;-54
2022/08/05 12:34:25;;;;;;;9.60;5.43;;;33.90;99.90;;;;;;5053017;28;20409;-54
2022/08/05 12:36:53;;;;;;;12.27;5.97;;;34.20;99.90;;;;;;5053068;28;20411;-54
2022/08/05 12:39:19;;;;;;;8.40;6.37;;;34.30;99.90;;;;;;5053025;28;20464;-54
2022/08/05 12:41:45;;;;;;;7.85;5.78;;;34.80;99.90;;;;;;5053159;28;20385;-54
2022/08/05 12:44:14;;;;;;;8.02;5.20;;;35.00;99.90;;;;;;5052430;28;20385;-54
2022/08/05 12:46:41;;;;;;;9.60;6.30;;;35.40;99.90;;;;;;5053155;28;20385;-55
2022/08/05 12:49:16;;;;;;;7.78;5.57;;;35.40;99.90;;;;;;5052269;28;20389;-55
2022/08/05 12:51:54;;;;;;;7.72;5.30;;;35.80;99.90;;;;;;5053389;28;20397;-54
2022/08/05 12:54:30;;;;;;;8.40;5.80;;;35.70;99.90;;;;;;5053640;28;20401;-55
2022/08/05 12:56:59;;;;;;;7.75;5.97;;;35.40;99.90;;;;;;5052276;28;20408;-56
2022/08/05 12:59:29;;;;;;;9.20;5.55;;;35.00;99.90;;;;;;5034639;28;20763;-55